Almaty Airport
UAAA : now visible

Airfield :











YOU CAN JOIN US ON...

 
LOGIN :

Register | Disclaimer

   EN    FR    IT 

 









Legend :    VFR   Marginal VFR   IFR   Intensive IFR   Very Intensive IFR
Visi :
Ceiling :
>= 8 km
>= 3000ft
5 to 8 km
1000 to 3000 ft
1500m to 5 km
500 to 1000 ft
800 to 1500m
200 to 500 ft
< 800m
< 200 ft
Symbols :   Thunderstorms  Fog  Heavy snow  Heavy precipitations  Wind > 20 kt







- Airport Elevation : 2234 ft
- IATA code : ALA


UAAA - Almaty

CURRENT METAR :
  • 261200Z 04003MPS 360V090 9999 SCT050CB BKN100 32/07 Q1009 R88/65D NOSIG

EXPIRED METARs :
  • 261130Z 04003MPS 010V070 9999 SCT050CB BKN100 32/09 Q1009 R88/65D NOSIG
  • 261100Z 22002MPS 150V260 9999 SCT050CB BKN100 33/04 Q1009 R88/65D NOSIG
  • 261030Z 04002MPS 320V080 9999 SCT050CB BKN100 32/06 Q1009 R88/65D NOSIG
  • 261000Z 02002MPS 310V080 9999 SCT050CB BKN100 33/05 Q1009 R88/65D NOSIG
  • 260930Z 24003MPS 170V280 9999 SCT050CB BKN100 33/05 Q1009 R88/65D NOSIG

TAF TAF UAAA
Valid from the 26 at 12:00 until the 27 at 12:00 UTC


261100Z 2612/2712 16003MPS 9999 SCT050CB BKN100 TX35/2708Z TN18/2701Z
TEMPO 2612/2620 20003MPS
BECMG 2702/2703 02003MPS
TEMPO 2702/2712 34003G08MPS
PROB40
TEMPO 2708/2712 TS
UAAA FIR / Asia



MET'MAP, your aeronautical weather chart ! - Copyright ORBIFLY December 2007 - Disclaimer

ORBIFLY MET'MAP TEAM :

Programming & Development : Alexandra Zaïnal
Concept & Development : Baudouin d'Aumeries
Co-Development & Prog : Marc-Olivier Méhu
Technical & hardware support : Manuel Goepfert

Contact : metmap@orbifly.com




SOURCES & CREDITS :

   NOAA       Earth
Advisory